createdAt,value
2022-08-05T00:01:28.597Z,68.55
2022-08-05T00:03:57.251Z,69.18
2022-08-05T00:06:32.484Z,68.34
2022-08-05T00:09:00.732Z,69.05
2022-08-05T00:11:30.533Z,68.92
2022-08-05T00:14:02.532Z,68.81
2022-08-05T00:16:52.561Z,68.85
2022-08-05T00:19:24.638Z,68.86
2022-08-05T00:21:52.206Z,68.66
2022-08-05T00:24:24.517Z,68.42
2022-08-05T00:26:56.141Z,68.20
2022-08-05T00:29:25.441Z,68.64
2022-08-05T00:32:12.596Z,68.73
2022-08-05T00:34:53.219Z,68.51
2022-08-05T00:37:35.791Z,68.70
2022-08-05T00:40:17.890Z,69.79
2022-08-05T00:42:54.231Z,69.40
2022-08-05T00:45:28.315Z,69.66
2022-08-05T00:48:08.178Z,69.46
2022-08-05T00:50:36.235Z,69.31
2022-08-05T00:53:03.462Z,69.89
2022-08-05T00:55:43.664Z,68.77
2022-08-05T00:58:17.021Z,68.35
2022-08-05T01:00:47.601Z,68.96
2022-08-05T01:03:22.311Z,69.56
2022-08-05T01:05:51.085Z,69.32
2022-08-05T01:08:42.232Z,69.26
2022-08-05T01:11:22.590Z,69.47
2022-08-05T01:14:08.693Z,69.90
2022-08-05T01:16:41.364Z,69.19
2022-08-05T01:19:56.151Z,69.34
2022-08-05T01:22:47.025Z,69.47
2022-08-05T01:25:20.124Z,69.46
2022-08-05T01:28:11.000Z,70.20
2022-08-05T01:30:50.667Z,70.24
2022-08-05T01:33:25.402Z,70.50
2022-08-05T01:35:57.578Z,69.63
2022-08-05T01:38:29.865Z,70.06
2022-08-05T01:41:01.438Z,69.77
2022-08-05T01:43:30.443Z,70.88
2022-08-05T01:46:07.394Z,69.50
2022-08-05T01:48:45.186Z,69.66
2022-08-05T01:51:18.924Z,69.89
2022-08-05T01:53:57.663Z,70.51
2022-08-05T01:58:09.488Z,70.61
2022-08-05T01:59:21.673Z,70.68
2022-08-05T02:01:52.099Z,70.89
2022-08-05T02:04:24.186Z,70.82
2022-08-05T02:06:52.738Z,71.14
2022-08-05T02:09:20.664Z,71.17
2022-08-05T02:12:20.097Z,71.52
2022-08-05T02:15:03.073Z,71.77
2022-08-05T02:18:32.691Z,71.37
2022-08-05T02:20:26.692Z,71.39
2022-08-05T02:23:01.124Z,71.65
2022-08-05T02:25:50.174Z,71.58
2022-08-05T02:28:29.258Z,71.45
2022-08-05T02:31:02.204Z,71.22
2022-08-05T02:33:35.972Z,71.82
2022-08-05T02:36:13.284Z,71.82
2022-08-05T02:38:53.356Z,71.49
2022-08-05T02:41:22.965Z,71.24
2022-08-05T02:44:02.747Z,71.46
2022-08-05T02:46:35.678Z,72.01
2022-08-05T02:49:13.350Z,72.88
2022-08-05T02:52:02.804Z,72.40
2022-08-05T02:54:34.983Z,72.25
2022-08-05T02:57:10.417Z,72.46
2022-08-05T02:59:54.995Z,72.08
2022-08-05T03:02:28.348Z,71.69
2022-08-05T03:04:57.517Z,72.01
2022-08-05T03:08:00.612Z,71.87
2022-08-05T03:10:21.871Z,71.97
2022-08-05T03:12:53.546Z,72.40
2022-08-05T03:15:20.911Z,72.49
2022-08-05T03:17:54.254Z,72.57
2022-08-05T03:20:23.680Z,72.88
2022-08-05T03:22:51.848Z,72.24
2022-08-05T03:25:33.821Z,71.77
2022-08-05T03:28:09.149Z,72.86
2022-08-05T03:30:38.175Z,72.38
2022-08-05T03:33:07.323Z,71.90
2022-08-05T03:35:41.606Z,71.64
2022-08-05T03:38:11.184Z,72.09
2022-08-05T03:40:45.207Z,72.22
2022-08-05T03:43:58.554Z,71.63
2022-08-05T03:46:01.677Z,72.10
2022-08-05T03:48:29.799Z,72.25
2022-08-05T03:52:39.070Z,72.97
2022-08-05T03:55:51.628Z,72.40
2022-08-05T03:57:16.255Z,73.01
2022-08-05T04:00:03.228Z,72.83
2022-08-05T04:02:38.681Z,72.33
2022-08-05T04:05:13.305Z,72.73
2022-08-05T04:07:58.323Z,73.38
2022-08-05T04:10:28.034Z,73.08
2022-08-05T04:12:58.809Z,72.32
2022-08-05T04:15:27.993Z,72.94
2022-08-05T04:18:03.811Z,72.74
2022-08-05T04:20:33.935Z,73.81
2022-08-05T04:23:00.691Z,73.69
2022-08-05T04:25:56.472Z,74.11
2022-08-05T04:28:14.901Z,73.28
2022-08-05T04:30:42.906Z,73.69
2022-08-05T04:33:09.798Z,74.63
2022-08-05T04:36:11.161Z,74.21
2022-08-05T04:38:39.576Z,75.08
2022-08-05T04:41:09.334Z,75.10
2022-08-05T04:43:37.757Z,74.49
2022-08-05T04:46:07.391Z,74.26
2022-08-05T04:48:34.269Z,74.28
2022-08-05T04:51:01.706Z,74.29
2022-08-05T04:53:38.822Z,74.23
2022-08-05T04:56:33.959Z,73.77
2022-08-05T04:58:54.300Z,74.29
2022-08-05T05:02:06.350Z,74.94
2022-08-05T05:04:07.746Z,73.34
2022-08-05T05:06:40.954Z,74.49
2022-08-05T05:09:14.255Z,74.42
2022-08-05T05:11:54.614Z,74.31
2022-08-05T05:14:28.003Z,74.42
2022-08-05T05:17:01.491Z,74.08
2022-08-05T05:19:36.507Z,73.61
2022-08-05T05:22:22.737Z,73.95
2022-08-05T05:24:57.263Z,74.32
2022-08-05T05:27:45.198Z,73.56
2022-08-05T05:30:30.954Z,73.47
2022-08-05T05:33:09.203Z,73.49
2022-08-05T05:35:47.564Z,73.63
2022-08-05T05:38:15.162Z,73.45
2022-08-05T05:40:53.582Z,73.40
2022-08-05T05:43:57.268Z,72.97
2022-08-05T05:46:17.345Z,73.22
2022-08-05T05:48:47.735Z,73.39
2022-08-05T05:51:20.330Z,73.77
2022-08-05T05:53:57.960Z,73.23
2022-08-05T05:56:31.719Z,72.31
2022-08-05T05:59:03.071Z,72.27
2022-08-05T06:01:37.076Z,72.43
2022-08-05T06:04:12.243Z,71.39
2022-08-05T06:06:42.063Z,71.16
2022-08-05T06:09:09.260Z,71.12
2022-08-05T06:11:59.235Z,70.90
2022-08-05T06:14:28.856Z,71.26
2022-08-05T06:16:56.777Z,70.35
2022-08-05T06:19:26.223Z,70.15
2022-08-05T06:22:02.782Z,69.75
2022-08-05T06:24:30.192Z,68.43
2022-08-05T06:26:57.972Z,66.29
2022-08-05T06:29:46.326Z,66.45
2022-08-05T06:32:24.836Z,66.87
2022-08-05T06:34:57.960Z,66.84
2022-08-05T06:37:57.544Z,66.69
2022-08-05T06:40:18.200Z,64.38
2022-08-05T06:42:52.279Z,65.69
2022-08-05T06:45:44.853Z,64.92
2022-08-05T06:48:13.795Z,64.02
2022-08-05T06:50:54.367Z,63.73
2022-08-05T06:53:27.918Z,64.94
2022-08-05T06:55:59.755Z,64.11
2022-08-05T06:58:29.968Z,64.97
2022-08-05T07:01:07.298Z,62.82
2022-08-05T07:03:34.662Z,62.52
2022-08-05T07:06:05.704Z,61.81
2022-08-05T07:08:47.542Z,61.53
2022-08-05T07:11:15.931Z,62.99
2022-08-05T07:14:02.278Z,62.97
2022-08-05T07:17:58.332Z,63.74
2022-08-05T07:22:27.651Z,62.55
2022-08-05T07:24:55.723Z,62.14
2022-08-05T07:27:23.309Z,60.69
2022-08-05T07:30:27.529Z,63.75
2022-08-05T07:32:41.245Z,61.08
2022-08-05T07:35:56.054Z,60.88
2022-08-05T07:37:59.489Z,61.99
2022-08-05T07:40:32.519Z,60.13
2022-08-05T07:42:59.873Z,58.47
2022-08-05T07:45:56.310Z,59.26
2022-08-05T07:49:01.550Z,58.20
2022-08-05T07:51:08.686Z,54.84
2022-08-05T07:53:51.261Z,56.42
2022-08-05T07:57:00.123Z,55.24
2022-08-05T07:59:05.344Z,55.78
2022-08-05T08:01:35.507Z,52.50
2022-08-05T08:04:23.009Z,51.13
2022-08-05T08:07:07.481Z,56.12
2022-08-05T08:09:34.625Z,57.48
2022-08-05T08:12:09.043Z,53.48
2022-08-05T08:14:42.778Z,50.31
2022-08-05T08:17:15.769Z,50.77
2022-08-05T08:20:43.889Z,53.44
2022-08-05T08:22:32.376Z,52.62
2022-08-05T08:25:03.466Z,51.87
2022-08-05T08:27:40.005Z,54.58
2022-08-05T08:30:18.991Z,51.33
2022-08-05T08:32:57.046Z,51.82
2022-08-05T08:35:26.726Z,48.42
2022-08-05T08:37:56.390Z,51.36
2022-08-05T08:40:24.160Z,48.07
2022-08-05T08:42:53.124Z,47.91
2022-08-05T08:45:27.247Z,49.90
2022-08-05T08:48:11.848Z,50.92
2022-08-05T08:51:03.354Z,54.08
2022-08-05T08:53:40.228Z,52.64
2022-08-05T08:56:12.506Z,48.50
2022-08-05T08:58:44.429Z,50.96
2022-08-05T09:01:16.400Z,53.19
2022-08-05T09:03:57.289Z,50.77
2022-08-05T09:06:29.831Z,48.80
2022-08-05T09:08:59.663Z,54.36
2022-08-05T09:11:51.981Z,52.81
2022-08-05T09:14:56.937Z,48.84
2022-08-05T09:17:01.460Z,46.74
2022-08-05T09:19:36.562Z,49.06
2022-08-05T09:22:22.143Z,46.96
2022-08-05T09:25:00.142Z,48.60
2022-08-05T09:28:05.253Z,49.65
2022-08-05T09:30:23.216Z,45.46
2022-08-05T09:32:52.130Z,46.20
2022-08-05T09:35:27.192Z,50.01
2022-08-05T09:38:12.272Z,49.14
2022-08-05T09:40:52.028Z,46.87
2022-08-05T09:43:40.820Z,46.71
2022-08-05T09:46:27.679Z,43.49
2022-08-05T09:49:07.870Z,44.56
2022-08-05T09:51:49.977Z,45.20
2022-08-05T09:54:21.170Z,45.14
2022-08-05T09:56:56.166Z,44.82
2022-08-05T09:59:27.433Z,47.05
2022-08-05T10:01:57.954Z,45.26
2022-08-05T10:04:35.979Z,46.16
2022-08-05T10:07:20.937Z,46.76
2022-08-05T10:10:15.344Z,41.71
2022-08-05T10:12:55.180Z,40.34
2022-08-05T10:15:24.094Z,41.76
2022-08-05T10:18:09.220Z,41.45
2022-08-05T10:20:39.571Z,43.91
2022-08-05T10:23:12.602Z,43.70
2022-08-05T10:26:07.042Z,45.13
2022-08-05T10:28:33.965Z,45.00
2022-08-05T10:32:50.893Z,41.93
2022-08-05T10:33:54.172Z,46.24
2022-08-05T10:36:23.592Z,41.37
2022-08-05T10:39:25.045Z,43.22
2022-08-05T10:42:13.408Z,44.45
2022-08-05T10:44:45.437Z,43.84
2022-08-05T10:47:26.419Z,37.54
2022-08-05T10:50:32.147Z,40.68
2022-08-05T10:53:04.057Z,39.82
2022-08-05T10:55:38.583Z,36.05
2022-08-05T10:58:20.708Z,41.07
2022-08-05T11:00:51.473Z,41.09
2022-08-05T11:03:23.285Z,40.08
2022-08-05T11:06:15.108Z,39.41
2022-08-05T11:09:32.249Z,37.33
2022-08-05T11:12:23.748Z,35.72
2022-08-05T11:15:19.277Z,38.21
2022-08-05T11:18:07.561Z,36.15
2022-08-05T11:20:47.452Z,32.47
2022-08-05T11:24:03.876Z,37.90
2022-08-05T11:26:32.854Z,38.40
2022-08-05T11:29:13.536Z,39.40
2022-08-05T11:31:58.165Z,40.16
2022-08-05T11:34:39.532Z,39.94
2022-08-05T11:38:28.240Z,41.17
2022-08-05T11:39:55.427Z,38.85
2022-08-05T11:42:32.555Z,38.54
2022-08-05T11:45:14.100Z,35.49
2022-08-05T11:47:52.610Z,36.68
2022-08-05T11:50:21.877Z,39.86
2022-08-05T11:52:50.357Z,39.05
2022-08-05T11:55:19.951Z,38.37
2022-08-05T11:58:10.320Z,41.04
2022-08-05T12:00:38.096Z,39.40
2022-08-05T12:03:28.859Z,40.09
2022-08-05T12:06:03.390Z,38.93
2022-08-05T12:08:34.112Z,40.47
2022-08-05T12:11:09.032Z,36.18
2022-08-05T12:13:49.513Z,38.00
2022-08-05T12:16:19.004Z,39.56
2022-08-05T12:18:49.349Z,38.27
2022-08-05T12:22:01.261Z,38.64
2022-08-05T12:24:28.102Z,39.23
2022-08-05T12:26:56.889Z,37.40
2022-08-05T12:29:27.373Z,40.68
2022-08-05T12:31:56.886Z,39.20
2022-08-05T12:34:28.471Z,42.12
2022-08-05T12:36:58.567Z,37.35
2022-08-05T12:39:34.308Z,39.72
2022-08-05T12:42:16.560Z,41.37
2022-08-05T12:44:45.988Z,41.09
2022-08-05T12:47:27.498Z,39.76
2022-08-05T12:50:03.836Z,42.81
2022-08-05T12:52:39.663Z,43.27
2022-08-05T12:55:22.372Z,42.60
2022-08-05T12:58:52.494Z,38.54
2022-08-05T13:02:02.757Z,42.37
2022-08-05T13:03:32.584Z,42.40
2022-08-05T13:06:01.012Z,38.91
2022-08-05T13:08:32.160Z,42.22
2022-08-05T13:11:00.654Z,41.94
2022-08-05T13:14:06.302Z,43.08
2022-08-05T13:16:16.762Z,39.66
2022-08-05T13:18:55.137Z,39.17
2022-08-05T13:21:27.794Z,41.95
2022-08-05T13:23:55.532Z,42.29
2022-08-05T13:26:27.251Z,43.31
2022-08-05T13:28:56.729Z,42.77
2022-08-05T13:31:33.834Z,42.09
2022-08-05T13:34:24.262Z,42.34
2022-08-05T13:36:53.723Z,39.98
2022-08-05T13:40:13.176Z,41.81
2022-08-05T13:42:14.784Z,43.06
2022-08-05T13:44:45.342Z,39.36
2022-08-05T13:47:34.676Z,42.49
2022-08-05T13:50:01.303Z,42.05
2022-08-05T13:52:31.751Z,41.05
2022-08-05T13:55:02.836Z,41.76
2022-08-05T13:57:48.720Z,42.68
2022-08-05T14:00:27.448Z,41.39
2022-08-05T14:02:56.297Z,42.06
2022-08-05T14:05:29.380Z,40.62
2022-08-05T14:08:19.974Z,40.42
2022-08-05T14:10:48.950Z,41.30
2022-08-05T14:13:16.204Z,41.91
2022-08-05T14:16:08.432Z,39.53
2022-08-05T14:18:29.717Z,38.12
2022-08-05T14:20:56.399Z,40.56
2022-08-05T14:23:25.456Z,37.98
2022-08-05T14:25:58.741Z,37.85
2022-08-05T14:28:28.148Z,39.56
2022-08-05T14:30:56.218Z,41.88
2022-08-05T14:33:23.894Z,40.56
2022-08-05T14:35:53.971Z,40.40
2022-08-05T14:38:27.748Z,41.51
2022-08-05T14:41:04.456Z,43.04
2022-08-05T14:43:57.704Z,40.54
2022-08-05T14:46:19.966Z,43.83
2022-08-05T14:48:50.025Z,42.51
2022-08-05T14:51:17.698Z,42.98
2022-08-05T14:53:45.531Z,41.97
2022-08-05T14:56:32.315Z,43.86
2022-08-05T14:58:58.977Z,44.55
2022-08-05T15:01:48.624Z,44.71
2022-08-05T15:04:14.315Z,45.03
2022-08-05T15:06:41.063Z,47.66
2022-08-05T15:09:15.986Z,47.15
2022-08-05T15:12:03.950Z,45.24
2022-08-05T15:14:35.937Z,47.54
2022-08-05T15:17:44.823Z,48.03
2022-08-05T15:19:58.456Z,48.73
2022-08-05T15:22:26.997Z,46.88
2022-08-05T15:24:54.253Z,47.33
2022-08-05T15:27:21.131Z,47.86
2022-08-05T15:29:47.774Z,47.74
2022-08-05T15:32:16.427Z,46.58
2022-08-05T15:34:43.447Z,47.60
2022-08-05T15:37:14.682Z,48.36
2022-08-05T15:40:59.733Z,46.25
2022-08-05T15:42:57.543Z,47.78
2022-08-05T15:45:17.042Z,46.24
2022-08-05T15:47:46.443Z,47.98
2022-08-05T15:50:15.985Z,46.69
2022-08-05T15:52:53.163Z,48.05
2022-08-05T15:55:24.598Z,49.00
2022-08-05T15:57:52.071Z,46.42
2022-08-05T16:00:26.518Z,46.93
2022-08-05T16:02:59.977Z,48.12
2022-08-05T16:05:28.278Z,46.81
2022-08-05T16:07:55.424Z,46.06
2022-08-05T16:10:25.452Z,45.59
2022-08-05T16:12:53.749Z,46.45
2022-08-05T16:15:23.752Z,45.03
2022-08-05T16:17:57.358Z,46.12
2022-08-05T16:20:25.305Z,48.67
2022-08-05T16:22:51.962Z,48.62
2022-08-05T16:25:18.694Z,48.82
2022-08-05T16:28:00.116Z,47.38
2022-08-05T16:30:32.371Z,47.18
2022-08-05T16:33:00.331Z,46.99
2022-08-05T16:35:32.605Z,46.54
2022-08-05T16:38:15.338Z,48.83
2022-08-05T16:40:55.661Z,48.06
2022-08-05T16:43:29.364Z,48.01
2022-08-05T16:46:04.522Z,46.33
2022-08-05T16:48:35.817Z,46.94
2022-08-05T16:51:08.670Z,46.86
2022-08-05T16:54:03.437Z,47.49
2022-08-05T16:56:25.153Z,45.50
2022-08-05T16:58:52.152Z,47.17
2022-08-05T17:01:19.204Z,45.15
2022-08-05T17:03:46.386Z,46.68
2022-08-05T17:06:13.272Z,43.80
2022-08-05T17:08:52.180Z,45.52
2022-08-05T17:11:23.322Z,45.78
2022-08-05T17:13:50.824Z,46.40
2022-08-05T17:16:32.459Z,48.32
2022-08-05T17:19:00.312Z,47.73
2022-08-05T17:21:35.278Z,48.61
2022-08-05T17:24:18.639Z,45.84
2022-08-05T17:26:55.435Z,48.17
2022-08-05T17:29:33.854Z,47.49
2022-08-05T17:32:11.611Z,49.87
2022-08-05T17:34:43.855Z,49.68
2022-08-05T17:37:27.268Z,48.22
2022-08-05T17:39:57.536Z,48.48
2022-08-05T17:42:32.437Z,49.16
2022-08-05T17:45:18.083Z,49.47
2022-08-05T17:47:53.461Z,50.00
2022-08-05T17:50:28.340Z,49.31
2022-08-05T17:52:58.982Z,49.70
2022-08-05T17:55:27.439Z,50.52
2022-08-05T17:58:04.349Z,50.59
2022-08-05T18:00:34.475Z,50.39
2022-08-05T18:03:02.303Z,50.22
2022-08-05T18:05:35.386Z,51.12
2022-08-05T18:08:03.139Z,51.92
2022-08-05T18:10:33.583Z,51.36
2022-08-05T18:13:01.921Z,51.92
2022-08-05T18:15:31.062Z,52.37
2022-08-05T18:18:05.540Z,51.15
2022-08-05T18:20:37.941Z,52.43
2022-08-05T18:23:09.374Z,52.19
2022-08-05T18:25:44.840Z,52.62
2022-08-05T18:28:17.666Z,52.16
2022-08-05T18:30:51.073Z,52.05
2022-08-05T18:33:22.970Z,53.13
2022-08-05T18:36:03.522Z,50.30
2022-08-05T18:38:34.199Z,51.64
2022-08-05T18:41:58.088Z,51.90
2022-08-05T18:43:49.557Z,52.64
2022-08-05T18:46:19.779Z,52.65
2022-08-05T18:48:51.874Z,52.17
2022-08-05T18:52:04.810Z,52.25
2022-08-05T18:54:31.679Z,51.65
2022-08-05T18:57:02.148Z,51.89
2022-08-05T18:59:43.267Z,52.87
2022-08-05T19:02:27.708Z,51.82
2022-08-05T19:05:02.847Z,52.83
2022-08-05T19:07:50.115Z,53.31
2022-08-05T19:10:26.427Z,53.29
2022-08-05T19:12:53.620Z,54.20
2022-08-05T19:15:57.869Z,53.76
2022-08-05T19:18:09.787Z,53.27
2022-08-05T19:20:41.690Z,54.38
2022-08-05T19:24:03.556Z,53.77
2022-08-05T19:26:02.015Z,53.82
2022-08-05T19:28:30.841Z,53.65
2022-08-05T19:30:57.810Z,54.04
2022-08-05T19:33:35.547Z,53.93
2022-08-05T19:36:07.000Z,54.38
2022-08-05T19:38:35.652Z,54.21
2022-08-05T19:41:08.979Z,54.58
2022-08-05T19:44:04.208Z,54.97
2022-08-05T19:46:28.957Z,54.51
2022-08-05T19:48:55.764Z,54.89
2022-08-05T19:52:04.277Z,54.44
2022-08-05T19:54:21.894Z,54.91
2022-08-05T19:56:58.032Z,54.92
2022-08-05T20:00:00.590Z,54.61
2022-08-05T20:02:12.907Z,54.87
2022-08-05T20:04:43.127Z,54.80
2022-08-05T20:07:13.885Z,55.14
2022-08-05T20:09:54.831Z,55.72
2022-08-05T20:12:24.530Z,55.80
2022-08-05T20:14:53.079Z,55.79
2022-08-05T20:17:23.951Z,56.13
2022-08-05T20:19:57.012Z,56.83
2022-08-05T20:22:27.168Z,56.79
2022-08-05T20:24:55.567Z,56.70
2022-08-05T20:27:27.186Z,57.12
2022-08-05T20:30:01.853Z,57.24
2022-08-05T20:32:28.760Z,57.55
2022-08-05T20:34:55.491Z,57.51
2022-08-05T20:38:05.592Z,57.56
2022-08-05T20:40:10.249Z,57.61
2022-08-05T20:42:37.846Z,57.76
2022-08-05T20:45:06.883Z,58.24
2022-08-05T20:47:33.638Z,58.14
2022-08-05T20:50:07.679Z,58.45
2022-08-05T20:52:34.479Z,58.34
2022-08-05T20:55:56.514Z,58.36
2022-08-05T20:57:48.033Z,58.52
2022-08-05T21:00:40.682Z,58.39
2022-08-05T21:03:07.037Z,58.73
2022-08-05T21:05:48.183Z,58.77
2022-08-05T21:08:42.401Z,59.02
2022-08-05T21:11:12.762Z,59.16
2022-08-05T21:13:48.471Z,59.25
2022-08-05T21:16:29.509Z,59.07
2022-08-05T21:18:59.825Z,59.03
2022-08-05T21:21:39.848Z,59.29
2022-08-05T21:24:13.482Z,59.54
2022-08-05T21:26:44.104Z,59.56
2022-08-05T21:29:16.607Z,59.63
2022-08-05T21:31:43.811Z,59.81
2022-08-05T21:34:11.406Z,60.04
2022-08-05T21:36:39.014Z,60.11
2022-08-05T21:39:09.435Z,60.00
2022-08-05T21:42:01.926Z,60.20
2022-08-05T21:44:29.765Z,60.38
2022-08-05T21:46:57.969Z,60.18
2022-08-05T21:49:48.167Z,60.12
2022-08-05T21:52:22.405Z,60.40
2022-08-05T21:54:55.555Z,60.38
2022-08-05T21:57:31.683Z,60.53
2022-08-05T22:00:06.195Z,60.78
2022-08-05T22:02:34.081Z,60.80
2022-08-05T22:05:00.831Z,60.93
2022-08-05T22:07:54.258Z,61.39
2022-08-05T22:10:16.796Z,60.89
2022-08-05T22:12:45.071Z,61.38
2022-08-05T22:16:02.654Z,61.34
2022-08-05T22:18:06.696Z,61.92
2022-08-05T22:20:35.713Z,62.01
2022-08-05T22:23:25.055Z,62.15
2022-08-05T22:26:30.454Z,62.06
2022-08-05T22:28:57.214Z,62.36
2022-08-05T22:31:25.068Z,62.15
2022-08-05T22:34:01.179Z,62.45
2022-08-05T22:36:29.050Z,62.23
2022-08-05T22:38:56.246Z,62.69
2022-08-05T22:41:26.436Z,63.09
2022-08-05T22:44:11.956Z,63.30
2022-08-05T22:46:40.678Z,63.04
2022-08-05T22:49:23.551Z,63.07
2022-08-05T22:52:05.414Z,63.09
2022-08-05T22:54:35.488Z,62.97
2022-08-05T22:57:03.519Z,62.83
2022-08-05T22:59:44.273Z,63.32
2022-08-05T23:02:16.732Z,63.41
2022-08-05T23:04:52.183Z,63.20
2022-08-05T23:07:22.240Z,63.67
2022-08-05T23:09:57.636Z,63.60
2022-08-05T23:12:32.469Z,63.58
2022-08-05T23:15:08.554Z,63.48
2022-08-05T23:17:59.700Z,63.62
2022-08-05T23:20:23.489Z,63.70
2022-08-05T23:22:55.722Z,63.72
2022-08-05T23:25:52.714Z,63.90
2022-08-05T23:28:10.978Z,64.33
2022-08-05T23:30:40.072Z,64.08
2022-08-05T23:33:16.190Z,64.13
2022-08-05T23:35:50.415Z,64.30
2022-08-05T23:38:17.329Z,64.63
2022-08-05T23:40:50.009Z,64.79
2022-08-05T23:43:24.811Z,64.61
2022-08-05T23:46:20.369Z,64.22
2022-08-05T23:48:59.627Z,64.48
2022-08-05T23:51:55.266Z,64.34
2022-08-05T23:54:34.189Z,64.49
2022-08-05T23:57:05.917Z,65.00
2022-08-05T23:59:37.633Z,64.72
